Terminal Aerodrome Forecast
Issued by NWS

Home | Current Version | Previous Version | Graphics & Text | Print | Product List | Glossary On
Versions: 1 2 3 4 5 6 7 8 9 10 11 12 13 14 15 16 17
000
FTUS43 KGRB 272327
TAFAUW
TAF
KAUW 272327Z 2800/2824 18004KT P6SM SCT080 BKN200
     FM280800 VRB03KT P6SM SCT050 BKN080
     FM281200 15003KT P6SM BKN035 OVC070 PROB30 2812/2817 -RA BKN030
     FM281700 16007KT 6SM RA BKN022 OVC035=

USA.gov is the U.S. government's official web portal to all federal, state and local government web resources and services.